Time,TemperatureF,DewpointF,PressureIn,WindDirection,WindDirectionDegrees,WindSpeedMPH,WindSpeedGustMPH,Humidity,HourlyPrecipIn,Conditions,Clouds,dailyrainin,SoftwareType,DateUTC
2013-05-27 00:04:00,52.2,50.8,30.02,SE,124,0.0,1.0,95,0.00,,,0.00,WeatherCatV1.15B25,2013-05-27 07:04:00,
2013-05-27 00:09:00,52.1,50.7,30.02,SE,124,0.0,0.0,95,0.00,,,0.00,WeatherCatV1.15B25,2013-05-27 07:09:00,
2013-05-27 00:14:00,52.1,50.7,30.02,SE,138,1.0,2.0,95,0.00,,,0.00,WeatherCatV1.15B25,2013-05-27 07:14:00,
2013-05-27 00:19:00,52.0,50.6,30.02,SE,124,0.0,1.0,95,0.00,,,0.00,WeatherCatV1.15B25,2013-05-27 07:19:00,
2013-05-27 00:24:00,52.1,50.7,30.02,SE,145,1.0,1.0,95,0.00,,,0.00,WeatherCatV1.15B25,2013-05-27 07:24:00,
2013-05-27 00:29:00,52.1,50.7,30.02,ESE,113,2.0,2.0,95,0.00,,,0.00,WeatherCatV1.15B25,2013-05-27 07:29:00,
2013-05-27 00:34:00,52.1,50.7,30.02,ESE,111,1.0,1.0,95,0.00,,,0.00,WeatherCatV1.15B25,2013-05-27 07:34:00,
2013-05-27 00:39:00,52.0,50.6,30.02,ESE,114,3.0,4.0,95,0.00,,,0.00,WeatherCatV1.15B25,2013-05-27 07:39:00,
2013-05-27 00:44:00,52.0,50.6,30.02,ESE,121,2.0,3.0,95,0.00,,,0.00,WeatherCatV1.15B25,2013-05-27 07:44:00,
2013-05-27 00:49:00,52.0,50.9,30.02,SE,126,1.0,2.0,96,0.00,,,0.00,WeatherCatV1.15B25,2013-05-27 07:49:00,
2013-05-27 00:54:00,51.9,50.8,30.01,ESE,111,1.0,1.0,96,0.00,,,0.00,WeatherCatV1.15B25,2013-05-27 07:54:00,
2013-05-27 00:59:00,51.9,50.8,30.01,ESE,121,0.0,1.0,96,0.00,,,0.00,WeatherCatV1.15B25,2013-05-27 07:59:00,
2013-05-27 01:04:00,51.9,50.8,30.01,SSE,147,2.0,2.0,96,0.00,,,0.00,WeatherCatV1.15B25,2013-05-27 08:04:00,
2013-05-27 01:09:00,51.8,50.7,30.01,SE,146,2.0,2.0,96,0.00,,,0.00,WeatherCatV1.15B25,2013-05-27 08:09:00,
2013-05-27 01:14:00,51.8,50.7,30.01,SE,127,1.0,1.0,96,0.00,,,0.00,WeatherCatV1.15B25,2013-05-27 08:14:00,
2013-05-27 01:19:00,51.8,50.7,30.01,East,84,1.0,2.0,96,0.00,,,0.00,WeatherCatV1.15B25,2013-05-27 08:19:00,
2013-05-27 01:24:00,51.8,50.7,30.01,SE,136,0.0,2.0,96,0.00,,,0.00,WeatherCatV1.15B25,2013-05-27 08:24:00,
2013-05-27 01:29:00,51.8,50.7,30.01,SE,134,0.0,1.0,96,0.00,,,0.00,WeatherCatV1.15B25,2013-05-27 08:29:00,
2013-05-27 01:34:00,51.8,50.7,30.00,SSW,207,1.0,2.0,96,0.00,,,0.00,WeatherCatV1.15B25,2013-05-27 08:34:00,
2013-05-27 01:39:00,51.8,50.7,30.00,SSW,198,4.0,4.0,96,0.00,,,0.00,WeatherCatV1.15B25,2013-05-27 08:39:00,
2013-05-27 01:44:00,51.7,50.6,30.00,SE,143,2.0,4.0,96,0.00,,,0.01,WeatherCatV1.15B25,2013-05-27 08:44:00,
2013-05-27 01:49:00,51.6,50.5,30.00,SE,139,1.0,2.0,96,0.00,,,0.01,WeatherCatV1.15B25,2013-05-27 08:49:00,
2013-05-27 01:54:00,51.5,50.4,30.00,SSW,195,2.0,3.0,96,0.00,,,0.01,WeatherCatV1.15B25,2013-05-27 08:54:00,
2013-05-27 01:59:00,51.3,50.2,30.00,SSE,162,2.0,2.0,96,0.00,,,0.01,WeatherCatV1.15B25,2013-05-27 08:59:00,
2013-05-27 02:04:00,51.3,50.2,30.00,SE,134,1.0,3.0,96,0.00,,,0.01,WeatherCatV1.15B25,2013-05-27 09:04:00,
2013-05-27 02:10:00,51.2,50.1,30.00,SE,139,0.0,0.0,96,0.00,,,0.01,WeatherCatV1.15B25,2013-05-27 09:10:00,
2013-05-27 02:15:00,51.1,50.0,30.00,SE,142,0.0,2.0,96,0.00,,,0.01,WeatherCatV1.15B25,2013-05-27 09:15:00,
2013-05-27 02:20:00,51.0,49.9,30.00,SE,128,0.0,1.0,96,0.00,,,0.01,WeatherCatV1.15B25,2013-05-27 09:20:00,
2013-05-27 02:25:00,50.9,49.8,29.99,ESE,122,0.0,1.0,96,0.00,,,0.01,WeatherCatV1.15B25,2013-05-27 09:25:00,
2013-05-27 02:30:00,50.9,49.8,29.99,ESE,122,0.0,1.0,96,0.00,,,0.01,WeatherCatV1.15B25,2013-05-27 09:30:00,
2013-05-27 02:35:00,51.1,50.0,29.99,ENE,58,1.0,2.0,96,0.00,,,0.01,WeatherCatV1.15B25,2013-05-27 09:35:00,
2013-05-27 02:40:00,51.1,50.0,29.99,ENE,66,1.0,1.0,96,0.00,,,0.01,WeatherCatV1.15B25,2013-05-27 09:40:00,
2013-05-27 02:45:00,51.1,50.0,29.98,ENE,67,1.0,2.0,96,0.00,,,0.01,WeatherCatV1.15B25,2013-05-27 09:45:00,
2013-05-27 02:50:00,51.0,49.9,29.98,ENE,66,0.0,1.0,96,0.00,,,0.01,WeatherCatV1.15B25,2013-05-27 09:50:00,
2013-05-27 02:55:00,50.8,49.7,29.98,ENE,66,0.0,1.0,96,0.00,,,0.01,WeatherCatV1.15B25,2013-05-27 09:55:00,
2013-05-27 03:00:00,50.7,49.6,29.98,ENE,66,0.0,0.0,96,0.00,,,0.01,WeatherCatV1.15B25,2013-05-27 10:00:00,
2013-05-27 03:05:00,50.5,49.4,29.98,ENE,66,1.0,1.0,96,0.00,,,0.01,WeatherCatV1.15B25,2013-05-27 10:05:00,
2013-05-27 03:10:00,50.3,49.2,29.97,ENE,67,1.0,1.0,96,0.00,,,0.01,WeatherCatV1.15B25,2013-05-27 10:10:00,
2013-05-27 03:15:00,50.1,49.0,29.97,ENE,67,0.0,1.0,96,0.00,,,0.01,WeatherCatV1.15B25,2013-05-27 10:15:00,
2013-05-27 03:20:00,50.0,48.9,29.97,ENE,67,1.0,1.0,96,0.00,,,0.01,WeatherCatV1.15B25,2013-05-27 10:20:00,
2013-05-27 03:25:00,49.9,48.8,29.97,ENE,66,0.0,1.0,96,0.00,,,0.01,WeatherCatV1.15B25,2013-05-27 10:25:00,
2013-05-27 03:30:00,49.7,48.9,29.96,ENE,67,1.0,1.0,97,0.00,,,0.01,WeatherCatV1.15B25,2013-05-27 10:30:00,
2013-05-27 03:35:00,49.7,48.9,29.96,ENE,63,1.0,2.0,97,0.00,,,0.01,WeatherCatV1.15B25,2013-05-27 10:35:00,
2013-05-27 03:40:00,49.7,48.9,29.96,NE,47,1.0,2.0,97,0.00,,,0.01,WeatherCatV1.15B25,2013-05-27 10:40:00,
2013-05-27 03:45:00,49.6,48.8,29.96,NE,47,1.0,2.0,97,0.00,,,0.01,WeatherCatV1.15B25,2013-05-27 10:45:00,
2013-05-27 03:50:00,49.6,48.8,29.95,NE,47,2.0,2.0,97,0.00,,,0.01,WeatherCatV1.15B25,2013-05-27 10:50:00,
2013-05-27 03:55:00,49.5,48.7,29.95,NE,49,1.0,1.0,97,0.00,,,0.01,WeatherCatV1.15B25,2013-05-27 10:55:00,
2013-05-27 04:00:00,49.3,48.5,29.94,NE,48,0.0,1.0,97,0.00,,,0.01,WeatherCatV1.15B25,2013-05-27 11:00:00,
2013-05-27 04:05:00,49.2,48.4,29.94,NE,48,1.0,1.0,97,0.00,,,0.01,WeatherCatV1.15B25,2013-05-27 11:05:00,
2013-05-27 04:10:00,49.1,48.3,29.94,NE,49,1.0,2.0,97,0.00,,,0.01,WeatherCatV1.15B25,2013-05-27 11:10:00,
2013-05-27 04:15:00,49.0,48.2,29.94,NE,48,1.0,2.0,97,0.00,,,0.01,WeatherCatV1.15B25,2013-05-27 11:15:00,
2013-05-27 04:20:00,49.0,48.2,29.93,NE,48,1.0,2.0,97,0.00,,,0.01,WeatherCatV1.15B25,2013-05-27 11:20:00,
2013-05-27 04:25:00,48.9,48.1,29.93,NE,47,1.0,1.0,97,0.00,,,0.01,WeatherCatV1.15B25,2013-05-27 11:25:00,
2013-05-27 04:30:00,48.9,48.1,29.93,NE,47,0.0,0.0,97,0.00,,,0.01,WeatherCatV1.15B25,2013-05-27 11:30:00,
2013-05-27 04:35:00,48.7,47.9,29.93,NE,47,1.0,1.0,97,0.00,,,0.01,WeatherCatV1.15B25,2013-05-27 11:35:00,
2013-05-27 04:40:00,48.7,47.9,29.93,NE,47,1.0,1.0,97,0.00,,,0.01,WeatherCatV1.15B25,2013-05-27 11:40:00,
2013-05-27 04:45:00,48.7,47.9,29.92,NE,47,1.0,1.0,97,0.00,,,0.01,WeatherCatV1.15B25,2013-05-27 11:45:00,
2013-05-27 04:50:00,48.6,47.8,29.93,NE,47,1.0,1.0,97,0.00,,,0.01,WeatherCatV1.15B25,2013-05-27 11:50:00,
2013-05-27 04:55:00,48.5,47.7,29.92,NE,47,0.0,0.0,97,0.00,,,0.01,WeatherCatV1.15B25,2013-05-27 11:55:00,
2013-05-27 05:00:00,48.5,47.7,29.92,NE,47,1.0,2.0,97,0.00,,,0.01,WeatherCatV1.15B25,2013-05-27 12:00:00,
2013-05-27 05:05:00,48.4,47.6,29.92,NE,47,1.0,1.0,97,0.00,,,0.01,WeatherCatV1.15B25,2013-05-27 12:05:00,
2013-05-27 05:10:00,48.3,47.5,29.91,ENE,61,2.0,2.0,97,0.00,,,0.01,WeatherCatV1.15B25,2013-05-27 12:10:00,
2013-05-27 05:15:00,48.2,47.4,29.91,NE,44,2.0,2.0,97,0.00,,,0.01,WeatherCatV1.15B25,2013-05-27 12:15:00,
2013-05-27 05:20:00,48.1,47.3,29.91,NE,43,0.0,2.0,97,0.00,,,0.01,WeatherCatV1.15B25,2013-05-27 12:20:00,
2013-05-27 05:25:00,48.1,47.3,29.91,NE,43,1.0,1.0,97,0.00,,,0.01,WeatherCatV1.15B25,2013-05-27 12:25:00,
2013-05-27 05:30:00,48.1,47.3,29.90,NE,44,1.0,2.0,97,0.00,,,0.01,WeatherCatV1.15B25,2013-05-27 12:30:00,
2013-05-27 05:35:00,48.3,47.8,29.90,NE,44,0.0,1.0,98,0.00,,,0.01,WeatherCatV1.15B25,2013-05-27 12:35:00,
2013-05-27 05:40:00,48.3,47.8,29.90,NE,44,0.0,0.0,98,0.00,,,0.01,WeatherCatV1.15B25,2013-05-27 12:40:00,
2013-05-27 05:45:00,48.5,48.0,29.90,NE,44,1.0,2.0,98,0.00,,,0.01,WeatherCatV1.15B25,2013-05-27 12:45:00,
2013-05-27 05:50:00,48.7,48.2,29.90,NE,44,0.0,0.0,98,0.00,,,0.01,WeatherCatV1.15B25,2013-05-27 12:50:00,
2013-05-27 05:55:00,48.7,48.2,29.90,NE,44,0.0,1.0,98,0.00,,,0.01,WeatherCatV1.15B25,2013-05-27 12:55:00,
2013-05-27 06:00:00,48.6,48.1,29.90,ENE,65,0.0,1.0,98,0.00,,,0.01,WeatherCatV1.15B25,2013-05-27 13:00:00,
2013-05-27 06:05:00,48.5,48.0,29.90,ENE,65,1.0,1.0,98,0.00,,,0.01,WeatherCatV1.15B25,2013-05-27 13:05:00,
2013-05-27 06:10:00,48.7,48.2,29.89,ENE,64,0.0,1.0,98,0.00,,,0.01,WeatherCatV1.15B25,2013-05-27 13:10:00,
2013-05-27 06:15:00,48.8,48.3,29.89,NE,49,2.0,2.0,98,0.00,,,0.01,WeatherCatV1.15B25,2013-05-27 13:15:00,
2013-05-27 06:20:00,48.8,48.3,29.89,ENE,67,1.0,2.0,98,0.00,,,0.01,WeatherCatV1.15B25,2013-05-27 13:20:00,
2013-05-27 06:25:00,48.9,48.4,29.89,NE,44,1.0,2.0,98,0.00,,,0.01,WeatherCatV1.15B25,2013-05-27 13:25:00,
2013-05-27 06:30:00,48.9,48.4,29.89,East,86,1.0,1.0,98,0.00,,,0.01,WeatherCatV1.15B25,2013-05-27 13:30:00,
2013-05-27 06:35:00,49.0,48.5,29.89,East,86,0.0,2.0,98,0.00,,,0.01,WeatherCatV1.15B25,2013-05-27 13:35:00,
2013-05-27 06:40:00,49.1,48.6,29.89,ENE,57,1.0,1.0,98,0.00,,,0.01,WeatherCatV1.15B25,2013-05-27 13:40:00,
2013-05-27 06:45:00,49.2,48.7,29.88,NE,34,2.0,2.0,98,0.00,,,0.01,WeatherCatV1.15B25,2013-05-27 13:45:00,
2013-05-27 06:50:00,49.3,48.8,29.88,NE,44,2.0,2.0,98,0.00,,,0.01,WeatherCatV1.15B25,2013-05-27 13:50:00,
2013-05-27 06:55:00,49.4,48.9,29.88,NE,50,0.0,1.0,98,0.00,,,0.01,WeatherCatV1.15B25,2013-05-27 13:55:00,
2013-05-27 07:00:00,49.5,49.0,29.88,ESE,121,1.0,1.0,98,0.00,,,0.01,WeatherCatV1.15B25,2013-05-27 14:00:00,
2013-05-27 07:05:00,49.7,49.2,29.88,ESE,119,0.0,1.0,98,0.00,,,0.01,WeatherCatV1.15B25,2013-05-27 14:05:00,
2013-05-27 07:10:00,49.9,49.4,29.87,ESE,118,0.0,0.0,98,0.00,,,0.01,WeatherCatV1.15B25,2013-05-27 14:10:00,
2013-05-27 07:15:00,50.1,49.6,29.87,ESE,118,1.0,1.0,98,0.00,,,0.01,WeatherCatV1.15B25,2013-05-27 14:15:00,
2013-05-27 07:20:00,50.2,49.7,29.87,NE,47,1.0,2.0,98,0.00,,,0.01,WeatherCatV1.15B25,2013-05-27 14:20:00,
2013-05-27 07:25:00,50.4,49.9,29.86,NE,47,1.0,2.0,98,0.00,,,0.01,WeatherCatV1.15B25,2013-05-27 14:25:00,
2013-05-27 07:30:00,50.6,50.1,29.86,ENE,70,0.0,2.0,98,0.00,,,0.01,WeatherCatV1.15B25,2013-05-27 14:30:00,
2013-05-27 07:35:00,50.9,50.4,29.86,ENE,67,1.0,2.0,98,0.00,,,0.01,WeatherCatV1.15B25,2013-05-27 14:35:00,
2013-05-27 07:40:00,51.1,50.6,29.85,ENE,71,2.0,2.0,98,0.00,,,0.01,WeatherCatV1.15B25,2013-05-27 14:40:00,
2013-05-27 07:45:00,51.6,51.1,29.85,ESE,111,1.0,1.0,98,0.00,,,0.01,WeatherCatV1.15B25,2013-05-27 14:45:00,
2013-05-27 07:50:00,51.7,51.2,29.85,ESE,104,0.0,1.0,98,0.00,,,0.01,WeatherCatV1.15B25,2013-05-27 14:50:00,
2013-05-27 07:55:00,51.8,51.3,29.85,NE,53,1.0,2.0,98,0.00,,,0.01,WeatherCatV1.15B25,2013-05-27 14:55:00,
2013-05-27 08:00:00,52.0,51.2,29.85,ENE,75,0.0,1.0,97,0.00,,,0.01,WeatherCatV1.15B25,2013-05-27 15:00:00,
2013-05-27 08:05:00,52.1,51.3,29.85,ESE,104,2.0,2.0,97,0.00,,,0.01,WeatherCatV1.15B25,2013-05-27 15:05:00,
2013-05-27 08:10:00,52.2,51.4,29.84,East,86,0.0,1.0,97,0.00,,,0.01,WeatherCatV1.15B25,2013-05-27 15:10:00,
2013-05-27 08:15:00,52.3,51.5,29.84,ESE,109,0.0,1.0,97,0.00,,,0.01,WeatherCatV1.15B25,2013-05-27 15:15:00,
2013-05-27 08:20:00,52.5,51.7,29.84,SE,128,1.0,2.0,97,0.00,,,0.01,WeatherCatV1.15B25,2013-05-27 15:20:00,
2013-05-27 08:25:00,52.4,51.3,29.84,SE,134,1.0,2.0,96,0.00,,,0.01,WeatherCatV1.15B25,2013-05-27 15:25:00,
2013-05-27 08:30:00,52.4,51.3,29.84,SE,128,0.0,1.0,96,0.00,,,0.01,WeatherCatV1.15B25,2013-05-27 15:30:00,
2013-05-27 08:35:00,52.6,51.5,29.84,East,79,1.0,2.0,96,0.00,,,0.01,WeatherCatV1.15B25,2013-05-27 15:35:00,
2013-05-27 08:40:00,52.4,51.0,29.84,East,84,3.0,4.0,95,0.00,,,0.01,WeatherCatV1.15B25,2013-05-27 15:40:00,
2013-05-27 08:45:00,52.4,51.0,29.84,ENE,78,2.0,3.0,95,0.00,,,0.01,WeatherCatV1.15B25,2013-05-27 15:45:00,
2013-05-27 08:50:00,52.3,50.9,29.83,ENE,74,1.0,4.0,95,0.00,,,0.01,WeatherCatV1.15B25,2013-05-27 15:50:00,
2013-05-27 08:55:00,52.4,51.0,29.83,ESE,108,0.0,3.0,95,0.00,,,0.01,WeatherCatV1.15B25,2013-05-27 15:55:00,
2013-05-27 09:00:00,52.5,51.1,29.83,ENE,68,1.0,2.0,95,0.00,,,0.01,WeatherCatV1.15B25,2013-05-27 16:00:00,
2013-05-27 09:05:00,52.8,51.7,29.83,NNE,32,2.0,5.0,96,0.00,,,0.02,WeatherCatV1.15B25,2013-05-27 16:05:00,
2013-05-27 09:10:00,53.1,52.0,29.82,NE,47,1.0,4.0,96,0.00,,,0.02,WeatherCatV1.15B25,2013-05-27 16:10:00,
2013-05-27 09:15:00,53.4,52.0,29.82,East,90,1.0,5.0,95,0.00,,,0.02,WeatherCatV1.15B25,2013-05-27 16:15:00,
2013-05-27 09:20:00,53.5,51.8,29.82,ENE,57,1.0,4.0,94,0.00,,,0.02,WeatherCatV1.15B25,2013-05-27 16:20:00,
2013-05-27 09:25:00,53.7,52.0,29.82,ESE,105,3.0,3.0,94,0.00,,,0.02,WeatherCatV1.15B25,2013-05-27 16:25:00,
2013-05-27 09:30:00,53.8,51.8,29.81,ESE,119,0.0,5.0,93,0.00,,,0.02,WeatherCatV1.15B25,2013-05-27 16:30:00,
2013-05-27 09:35:00,53.9,51.9,29.81,East,79,2.0,4.0,93,0.00,,,0.03,WeatherCatV1.15B25,2013-05-27 16:35:00,
2013-05-27 09:40:00,54.1,52.4,29.81,ENE,69,4.0,4.0,94,0.00,,,0.03,WeatherCatV1.15B25,2013-05-27 16:40:00,
2013-05-27 09:45:00,54.1,52.1,29.81,East,96,1.0,7.0,93,0.00,,,0.03,WeatherCatV1.15B25,2013-05-27 16:45:00,
2013-05-27 09:50:00,54.2,52.2,29.80,East,84,1.0,4.0,93,0.00,,,0.03,WeatherCatV1.15B25,2013-05-27 16:50:00,
2013-05-27 09:55:00,54.4,52.4,29.80,ENE,73,2.0,6.0,93,0.00,,,0.03,WeatherCatV1.15B25,2013-05-27 16:55:00,
2013-05-27 10:00:00,54.6,52.6,29.80,SE,127,4.0,5.0,93,0.00,,,0.03,WeatherCatV1.15B25,2013-05-27 17:00:00,
2013-05-27 10:05:00,54.8,52.5,29.80,ESE,103,2.0,7.0,92,0.00,,,0.04,WeatherCatV1.15B25,2013-05-27 17:05:00,
2013-05-27 10:10:00,55.0,52.4,29.79,NE,43,1.0,5.0,91,0.00,,,0.04,WeatherCatV1.15B25,2013-05-27 17:10:00,
2013-05-27 10:15:00,55.2,52.3,29.79,SW,217,3.0,4.0,90,0.00,,,0.04,WeatherCatV1.15B25,2013-05-27 17:15:00,
2013-05-27 10:20:00,55.5,53.2,29.79,East,97,1.0,3.0,92,0.00,,,0.04,WeatherCatV1.15B25,2013-05-27 17:20:00,
2013-05-27 10:25:00,55.8,52.6,29.79,ESE,106,2.0,6.0,89,0.00,,,0.04,WeatherCatV1.15B25,2013-05-27 17:25:00,
2013-05-27 10:30:00,55.9,53.0,29.79,SSW,195,2.0,4.0,90,0.00,,,0.04,WeatherCatV1.15B25,2013-05-27 17:30:00,
2013-05-27 10:35:00,56.0,52.8,29.79,East,82,2.0,3.0,89,0.00,,,0.04,WeatherCatV1.15B25,2013-05-27 17:35:00,
2013-05-27 10:40:00,56.0,52.8,29.79,ESE,107,3.0,6.0,89,0.00,,,0.04,WeatherCatV1.15B25,2013-05-27 17:40:00,
2013-05-27 10:45:00,56.0,52.8,29.78,SE,134,2.0,4.0,89,0.00,,,0.04,WeatherCatV1.15B25,2013-05-27 17:45:00,
2013-05-27 10:50:00,56.0,52.8,29.78,ESE,105,2.0,6.0,89,0.00,,,0.05,WeatherCatV1.15B25,2013-05-27 17:50:00,
2013-05-27 10:55:00,56.0,52.5,29.78,East,90,1.0,8.0,88,0.00,,,0.05,WeatherCatV1.15B25,2013-05-27 17:55:00,
2013-05-27 11:00:00,56.1,52.9,29.78,SSE,148,2.0,6.0,89,0.00,,,0.05,WeatherCatV1.15B25,2013-05-27 18:00:00,
2013-05-27 11:05:00,56.1,52.6,29.78,East,84,3.0,8.0,88,0.00,,,0.05,WeatherCatV1.15B25,2013-05-27 18:05:00,
2013-05-27 11:10:00,56.1,52.9,29.78,ESE,103,3.0,5.0,89,0.00,,,0.05,WeatherCatV1.15B25,2013-05-27 18:10:00,
2013-05-27 11:15:00,56.4,52.9,29.77,East,82,3.0,7.0,88,0.00,,,0.05,WeatherCatV1.15B25,2013-05-27 18:15:00,
2013-05-27 11:20:00,56.5,53.3,29.78,ESE,121,5.0,8.0,89,0.00,,,0.05,WeatherCatV1.15B25,2013-05-27 18:20:00,
2013-05-27 11:25:00,56.8,53.3,29.78,SSE,150,3.0,7.0,88,0.00,,,0.05,WeatherCatV1.15B25,2013-05-27 18:25:00,
2013-05-27 11:30:00,56.8,52.7,29.77,ESE,102,2.0,5.0,86,0.00,,,0.05,WeatherCatV1.15B25,2013-05-27 18:30:00,
2013-05-27 11:35:00,56.8,53.3,29.77,ENE,69,4.0,6.0,88,0.00,,,0.05,WeatherCatV1.15B25,2013-05-27 18:35:00,
2013-05-27 11:40:00,56.8,53.0,29.77,East,84,1.0,5.0,87,0.00,,,0.05,WeatherCatV1.15B25,2013-05-27 18:40:00,
2013-05-27 11:45:00,57.0,53.8,29.77,East,86,2.0,4.0,89,0.00,,,0.06,WeatherCatV1.15B25,2013-05-27 18:45:00,
2013-05-27 11:50:00,57.1,53.6,29.77,NE,34,2.0,3.0,88,0.00,,,0.06,WeatherCatV1.15B25,2013-05-27 18:50:00,
2013-05-27 11:55:00,57.2,53.7,29.77,East,84,4.0,6.0,88,0.00,,,0.06,WeatherCatV1.15B25,2013-05-27 18:55:00,
2013-05-27 12:00:00,57.3,54.1,29.77,ESE,121,3.0,6.0,89,0.00,,,0.06,WeatherCatV1.15B25,2013-05-27 19:00:00,
2013-05-27 12:05:00,57.4,54.5,29.77,ESE,102,2.0,3.0,90,0.00,,,0.06,WeatherCatV1.15B25,2013-05-27 19:05:00,
2013-05-27 12:10:00,57.6,54.4,29.77,ESE,117,4.0,6.0,89,0.00,,,0.07,WeatherCatV1.15B25,2013-05-27 19:10:00,
2013-05-27 12:15:00,57.6,54.4,29.77,ESE,115,2.0,6.0,89,0.00,,,0.07,WeatherCatV1.15B25,2013-05-27 19:15:00,
2013-05-27 12:20:00,57.8,54.9,29.77,NE,42,2.0,5.0,90,0.00,,,0.07,WeatherCatV1.15B25,2013-05-27 19:20:00,
2013-05-27 12:25:00,58.0,54.5,29.77,ENE,78,3.0,8.0,88,0.00,,,0.07,WeatherCatV1.15B25,2013-05-27 19:25:00,
2013-05-27 12:30:00,58.1,55.2,29.77,SE,129,3.0,3.0,90,0.00,,,0.07,WeatherCatV1.15B25,2013-05-27 19:30:00,
2013-05-27 12:35:00,58.3,55.1,29.77,ENE,76,2.0,5.0,89,0.00,,,0.07,WeatherCatV1.15B25,2013-05-27 19:35:00,
2013-05-27 12:40:00,58.6,55.7,29.77,ENE,72,4.0,4.0,90,0.00,,,0.07,WeatherCatV1.15B25,2013-05-27 19:40:00,
2013-05-27 12:45:00,58.4,55.2,29.77,NE,41,4.0,6.0,89,0.00,,,0.07,WeatherCatV1.15B25,2013-05-27 19:45:00,
2013-05-27 12:50:00,58.4,54.9,29.77,East,96,4.0,6.0,88,0.00,,,0.08,WeatherCatV1.15B25,2013-05-27 19:50:00,
2013-05-27 12:55:00,58.2,54.7,29.77,ESE,119,2.0,4.0,88,0.00,,,0.08,WeatherCatV1.15B25,2013-05-27 19:55:00,
2013-05-27 13:00:00,58.3,55.1,29.77,SE,139,1.0,2.0,89,0.00,,,0.08,WeatherCatV1.15B25,2013-05-27 20:00:00,
2013-05-27 13:05:00,58.4,55.2,29.77,East,94,5.0,7.0,89,0.04,,,0.09,WeatherCatV1.15B25,2013-05-27 20:05:00,
2013-05-27 13:10:00,58.3,55.1,29.76,East,90,4.0,4.0,89,0.04,,,0.09,WeatherCatV1.15B25,2013-05-27 20:10:00,
2013-05-27 13:15:00,58.2,54.7,29.76,ESE,121,2.0,5.0,88,0.04,,,0.09,WeatherCatV1.15B25,2013-05-27 20:15:00,
2013-05-27 13:20:00,58.0,54.5,29.76,ESE,103,6.0,9.0,88,0.04,,,0.10,WeatherCatV1.15B25,2013-05-27 20:20:00,
2013-05-27 13:25:00,57.9,54.4,29.76,East,101,6.0,9.0,88,0.04,,,0.10,WeatherCatV1.15B25,2013-05-27 20:25:00,
2013-05-27 13:30:00,57.7,53.9,29.76,East,90,6.0,12.0,87,0.04,,,0.10,WeatherCatV1.15B25,2013-05-27 20:30:00,
2013-05-27 13:35:00,57.6,53.8,29.76,East,86,4.0,8.0,87,0.04,,,0.10,WeatherCatV1.15B25,2013-05-27 20:35:00,
2013-05-27 13:40:00,57.5,54.3,29.76,ESE,107,2.0,7.0,89,0.00,,,0.11,WeatherCatV1.15B25,2013-05-27 20:40:00,
2013-05-27 13:45:00,57.5,54.3,29.76,SE,124,1.0,6.0,89,0.00,,,0.11,WeatherCatV1.15B25,2013-05-27 20:45:00,
2013-05-27 13:50:00,57.5,54.3,29.76,NNE,27,1.0,8.0,89,0.00,,,0.11,WeatherCatV1.15B25,2013-05-27 20:50:00,
2013-05-27 13:55:00,57.5,54.6,29.76,ENE,69,3.0,9.0,90,0.04,,,0.12,WeatherCatV1.15B25,2013-05-27 20:55:00,
2013-05-27 14:00:00,57.5,54.3,29.76,East,86,2.0,7.0,89,0.04,,,0.12,WeatherCatV1.15B25,2013-05-27 21:00:00,
2013-05-27 14:05:00,57.5,54.3,29.76,ESE,118,3.0,5.0,89,0.04,,,0.12,WeatherCatV1.15B25,2013-05-27 21:05:00,
2013-05-27 14:10:00,57.6,54.7,29.76,ESE,115,1.0,3.0,90,0.00,,,0.12,WeatherCatV1.15B25,2013-05-27 21:10:00,
2013-05-27 14:15:00,57.7,55.1,29.76,SE,139,0.0,3.0,91,0.00,,,0.12,WeatherCatV1.15B25,2013-05-27 21:15:00,
2013-05-27 14:20:00,57.9,55.0,29.76,SE,131,1.0,2.0,90,0.00,,,0.12,WeatherCatV1.15B25,2013-05-27 21:20:00,
2013-05-27 14:25:00,57.8,54.9,29.76,SE,139,5.0,6.0,90,0.00,,,0.12,WeatherCatV1.15B25,2013-05-27 21:25:00,
2013-05-27 14:30:00,57.7,54.5,29.77,ESE,108,2.0,4.0,89,0.00,,,0.12,WeatherCatV1.15B25,2013-05-27 21:30:00,
2013-05-27 14:35:00,57.7,54.8,29.77,ESE,122,3.0,6.0,90,0.00,,,0.12,WeatherCatV1.15B25,2013-05-27 21:35:00,
2013-05-27 14:40:00,57.6,54.4,29.77,ESE,115,5.0,6.0,89,0.00,,,0.12,WeatherCatV1.15B25,2013-05-27 21:40:00,
2013-05-27 14:45:00,57.6,54.4,29.77,ENE,73,1.0,6.0,89,0.00,,,0.12,WeatherCatV1.15B25,2013-05-27 21:45:00,
2013-05-27 14:50:00,57.8,54.6,29.77,SSE,158,4.0,8.0,89,0.00,,,0.12,WeatherCatV1.15B25,2013-05-27 21:50:00,
2013-05-27 14:55:00,57.7,54.2,29.77,SW,222,1.0,3.0,88,0.00,,,0.12,WeatherCatV1.15B25,2013-05-27 21:55:00,
2013-05-27 15:00:00,57.8,54.6,29.77,ESE,105,7.0,7.0,89,0.00,,,0.12,WeatherCatV1.15B25,2013-05-27 22:00:00,
2013-05-27 15:05:00,57.9,53.7,29.77,South,188,1.0,5.0,86,0.00,,,0.12,WeatherCatV1.15B25,2013-05-27 22:05:00,
2013-05-27 15:10:00,58.2,53.7,29.77,ESE,110,1.0,5.0,85,0.00,,,0.12,WeatherCatV1.15B25,2013-05-27 22:10:00,
2013-05-27 15:15:00,58.4,53.9,29.78,ESE,117,3.0,6.0,85,0.00,,,0.13,WeatherCatV1.15B25,2013-05-27 22:15:00,
2013-05-27 15:20:00,58.4,53.9,29.78,SE,136,2.0,4.0,85,0.00,,,0.13,WeatherCatV1.15B25,2013-05-27 22:20:00,
2013-05-27 15:25:00,58.1,54.2,29.78,SE,124,1.0,3.0,87,0.04,,,0.14,WeatherCatV1.15B25,2013-05-27 22:25:00,
2013-05-27 15:30:00,58.0,54.8,29.78,SE,132,3.0,4.0,89,0.04,,,0.14,WeatherCatV1.15B25,2013-05-27 22:30:00,
2013-05-27 15:35:00,57.8,54.6,29.78,East,84,2.0,3.0,89,0.07,,,0.15,WeatherCatV1.15B25,2013-05-27 22:35:00,
2013-05-27 15:40:00,57.5,54.6,29.78,ENE,76,3.0,5.0,90,0.07,,,0.15,WeatherCatV1.15B25,2013-05-27 22:40:00,
2013-05-27 15:45:00,57.4,54.8,29.77,West,277,1.0,4.0,91,0.05,,,0.15,WeatherCatV1.15B25,2013-05-27 22:45:00,
2013-05-27 15:50:00,57.2,54.6,29.77,ESE,105,3.0,4.0,91,0.04,,,0.15,WeatherCatV1.15B25,2013-05-27 22:50:00,
2013-05-27 15:55:00,57.2,54.9,29.78,NE,34,0.0,2.0,92,0.00,,,0.15,WeatherCatV1.15B25,2013-05-27 22:55:00,
2013-05-27 16:00:00,57.3,54.7,29.78,East,92,1.0,2.0,91,0.00,,,0.15,WeatherCatV1.15B25,2013-05-27 23:00:00,
2013-05-27 16:05:00,57.5,54.9,29.78,NE,53,0.0,5.0,91,0.00,,,0.15,WeatherCatV1.15B25,2013-05-27 23:05:00,
2013-05-27 16:10:00,57.9,55.6,29.78,East,82,3.0,5.0,92,0.00,,,0.15,WeatherCatV1.15B25,2013-05-27 23:10:00,
2013-05-27 16:15:00,57.8,54.9,29.77,East,82,2.0,6.0,90,0.00,,,0.15,WeatherCatV1.15B25,2013-05-27 23:15:00,
2013-05-27 16:20:00,58.1,55.2,29.78,SE,139,2.0,4.0,90,0.00,,,0.15,WeatherCatV1.15B25,2013-05-27 23:20:00,
2013-05-27 16:25:00,58.3,55.4,29.77,ESE,104,4.0,6.0,90,0.00,,,0.15,WeatherCatV1.15B25,2013-05-27 23:25:00,
2013-05-27 16:30:00,58.5,55.3,29.77,ENE,59,1.0,5.0,89,0.00,,,0.15,WeatherCatV1.15B25,2013-05-27 23:30:00,
2013-05-27 16:35:00,58.8,55.6,29.77,South,173,2.0,3.0,89,0.00,,,0.15,WeatherCatV1.15B25,2013-05-27 23:35:00,
2013-05-27 16:40:00,59.4,56.2,29.77,South,172,2.0,9.0,89,0.00,,,0.15,WeatherCatV1.15B25,2013-05-27 23:40:00,
2013-05-27 16:45:00,59.2,55.6,29.77,ESE,105,6.0,6.0,88,0.00,,,0.15,WeatherCatV1.15B25,2013-05-27 23:45:00,
2013-05-27 16:50:00,59.0,55.8,29.77,NNE,15,3.0,5.0,89,0.00,,,0.15,WeatherCatV1.15B25,2013-05-27 23:50:00,
2013-05-27 16:55:00,58.8,54.9,29.77,SE,146,1.0,7.0,87,0.00,,,0.15,WeatherCatV1.15B25,2013-05-27 23:55:00,
2013-05-27 17:00:00,58.5,54.6,29.77,SE,132,1.0,4.0,87,0.00,,,0.15,WeatherCatV1.15B25,2013-05-28 00:00:00,
2013-05-27 17:05:00,58.4,54.9,29.77,ENE,67,6.0,6.0,88,0.00,,,0.15,WeatherCatV1.15B25,2013-05-28 00:05:00,
2013-05-27 17:10:00,58.3,54.4,29.77,SSE,166,1.0,6.0,87,0.00,,,0.15,WeatherCatV1.15B25,2013-05-28 00:10:00,
2013-05-27 17:15:00,58.4,54.5,29.77,ENE,61,1.0,9.0,87,0.00,,,0.15,WeatherCatV1.15B25,2013-05-28 00:15:00,
2013-05-27 17:20:00,58.4,54.2,29.77,SE,133,2.0,6.0,86,0.00,,,0.15,WeatherCatV1.15B25,2013-05-28 00:20:00,
2013-05-27 17:25:00,58.4,54.2,29.77,ESE,114,1.0,6.0,86,0.00,,,0.15,WeatherCatV1.15B25,2013-05-28 00:25:00,
2013-05-27 17:30:00,58.4,53.9,29.77,SE,131,1.0,5.0,85,0.00,,,0.15,WeatherCatV1.15B25,2013-05-28 00:30:00,
2013-05-27 17:35:00,58.4,54.2,29.77,East,81,2.0,5.0,86,0.00,,,0.15,WeatherCatV1.15B25,2013-05-28 00:35:00,
2013-05-27 17:40:00,58.6,54.7,29.77,SE,136,1.0,4.0,87,0.00,,,0.15,WeatherCatV1.15B25,2013-05-28 00:40:00,
2013-05-27 17:45:00,58.7,54.2,29.77,SE,131,1.0,3.0,85,0.00,,,0.15,WeatherCatV1.15B25,2013-05-28 00:45:00,
2013-05-27 17:50:00,58.8,54.3,29.77,SE,128,0.0,3.0,85,0.00,,,0.15,WeatherCatV1.15B25,2013-05-28 00:50:00,
2013-05-27 17:55:00,59.0,54.5,29.77,SW,235,0.0,3.0,85,0.00,,,0.15,WeatherCatV1.15B25,2013-05-28 00:55:00,
2013-05-27 18:00:00,58.8,54.0,29.77,SW,236,2.0,2.0,84,0.00,,,0.15,WeatherCatV1.15B25,2013-05-28 01:00:00,
2013-05-27 18:05:00,58.4,53.9,29.77,South,174,2.0,3.0,85,0.00,,,0.15,WeatherCatV1.15B25,2013-05-28 01:05:00,
2013-05-27 18:10:00,58.3,54.1,29.77,SSW,201,2.0,2.0,86,0.00,,,0.15,WeatherCatV1.15B25,2013-05-28 01:10:00,
2013-05-27 18:15:00,58.0,54.2,29.78,SSW,211,5.0,7.0,87,0.00,,,0.16,WeatherCatV1.15B25,2013-05-28 01:15:00,
2013-05-27 18:20:00,57.6,54.4,29.79,WSW,248,3.0,5.0,89,0.12,,,0.17,WeatherCatV1.15B25,2013-05-28 01:20:00,
2013-05-27 18:25:00,57.2,54.6,29.79,WSW,255,2.0,3.0,91,0.39,,,0.20,WeatherCatV1.15B25,2013-05-28 01:25:00,
2013-05-27 18:30:00,56.9,54.3,29.78,SE,134,0.0,2.0,91,0.25,,,0.22,WeatherCatV1.15B25,2013-05-28 01:30:00,
2013-05-27 18:35:00,56.7,54.4,29.79,SE,125,0.0,0.0,92,0.25,,,0.24,WeatherCatV1.15B25,2013-05-28 01:35:00,
2013-05-27 18:40:00,56.6,54.6,29.79,ESE,115,2.0,2.0,93,0.13,,,0.25,WeatherCatV1.15B25,2013-05-28 01:40:00,
2013-05-27 18:45:00,56.4,54.7,29.78,ESE,108,1.0,1.0,94,0.12,,,0.26,WeatherCatV1.15B25,2013-05-28 01:45:00,
2013-05-27 18:50:00,56.3,54.6,29.78,ESE,117,1.0,1.0,94,0.09,,,0.26,WeatherCatV1.15B25,2013-05-28 01:50:00,
2013-05-27 18:55:00,56.1,54.4,29.79,ESE,109,0.0,1.0,94,0.05,,,0.26,WeatherCatV1.15B25,2013-05-28 01:55:00,
2013-05-27 19:00:00,56.0,54.3,29.79,ESE,113,1.0,3.0,94,0.04,,,0.27,WeatherCatV1.15B25,2013-05-28 02:00:00,
2013-05-27 19:05:00,55.8,54.4,29.79,ESE,115,0.0,2.0,95,0.15,,,0.28,WeatherCatV1.15B25,2013-05-28 02:05:00,
2013-05-27 19:10:00,55.7,54.3,29.80,SSE,150,3.0,3.0,95,0.15,,,0.29,WeatherCatV1.15B25,2013-05-28 02:10:00,
2013-05-27 19:15:00,55.5,54.1,29.80,SE,134,2.0,5.0,95,0.16,,,0.31,WeatherCatV1.15B25,2013-05-28 02:15:00,
2013-05-27 19:20:00,55.4,54.0,29.80,ESE,114,2.0,5.0,95,0.20,,,0.32,WeatherCatV1.15B25,2013-05-28 02:20:00,
2013-05-27 19:25:00,55.3,53.9,29.80,South,187,2.0,5.0,95,0.15,,,0.33,WeatherCatV1.15B25,2013-05-28 02:25:00,
2013-05-27 19:30:00,55.1,53.7,29.80,SSE,153,2.0,3.0,95,0.07,,,0.33,WeatherCatV1.15B25,2013-05-28 02:30:00,
2013-05-27 19:35:00,55.1,53.7,29.80,SSE,156,3.0,5.0,95,0.06,,,0.34,WeatherCatV1.15B25,2013-05-28 02:35:00,
2013-05-27 19:40:00,55.0,53.9,29.80,SE,128,0.0,1.0,96,0.06,,,0.34,WeatherCatV1.15B25,2013-05-28 02:40:00,
2013-05-27 19:45:00,55.0,53.9,29.80,SSE,155,1.0,2.0,96,0.04,,,0.34,WeatherCatV1.15B25,2013-05-28 02:45:00,
2013-05-27 19:50:00,54.9,53.8,29.80,East,88,3.0,3.0,96,0.00,,,0.34,WeatherCatV1.15B25,2013-05-28 02:50:00,
2013-05-27 19:55:00,54.8,53.7,29.80,ESE,105,0.0,2.0,96,0.00,,,0.34,WeatherCatV1.15B25,2013-05-28 02:55:00,
2013-05-27 20:00:00,54.8,53.7,29.80,SE,125,3.0,5.0,96,0.00,,,0.34,WeatherCatV1.15B25,2013-05-28 03:00:00,
2013-05-27 20:05:00,54.7,53.6,29.80,SE,131,2.0,4.0,96,0.00,,,0.34,WeatherCatV1.15B25,2013-05-28 03:05:00,
2013-05-27 20:10:00,54.7,53.6,29.80,East,100,2.0,2.0,96,0.00,,,0.34,WeatherCatV1.15B25,2013-05-28 03:10:00,
2013-05-27 20:15:00,54.7,53.6,29.80,ESE,114,3.0,3.0,96,0.00,,,0.34,WeatherCatV1.15B25,2013-05-28 03:15:00,
2013-05-27 20:20:00,54.7,53.6,29.80,ESE,111,1.0,3.0,96,0.00,,,0.34,WeatherCatV1.15B25,2013-05-28 03:20:00,
2013-05-27 20:25:00,54.6,53.5,29.80,ESE,118,3.0,4.0,96,0.00,,,0.34,WeatherCatV1.15B25,2013-05-28 03:25:00,
2013-05-27 20:30:00,54.5,53.4,29.81,ESE,122,0.0,2.0,96,0.00,,,0.34,WeatherCatV1.15B25,2013-05-28 03:30:00,
2013-05-27 20:35:00,54.5,53.4,29.81,NE,55,2.0,4.0,96,0.00,,,0.34,WeatherCatV1.15B25,2013-05-28 03:35:00,
2013-05-27 20:40:00,54.4,53.3,29.81,ENE,57,0.0,3.0,96,0.00,,,0.34,WeatherCatV1.15B25,2013-05-28 03:40:00,
2013-05-27 20:45:00,54.4,53.3,29.81,ESE,105,3.0,3.0,96,0.00,,,0.34,WeatherCatV1.15B25,2013-05-28 03:45:00,
2013-05-27 20:50:00,54.3,53.2,29.81,SE,132,1.0,3.0,96,0.00,,,0.34,WeatherCatV1.15B25,2013-05-28 03:50:00,
2013-05-27 20:55:00,54.3,53.2,29.81,South,184,0.0,1.0,96,0.00,,,0.34,WeatherCatV1.15B25,2013-05-28 03:55:00,
2013-05-27 21:00:00,54.3,53.2,29.81,SE,134,3.0,4.0,96,0.00,,,0.34,WeatherCatV1.15B25,2013-05-28 04:00:00,
2013-05-27 21:01:00,54.3,53.2,29.81,East,92,2.0,4.0,96,0.00,,,0.34,WeatherCatV1.15B25,2013-05-28 04:01:00,
2013-05-27 21:06:00,54.3,53.2,29.81,ESE,121,4.0,4.0,96,0.00,,,0.34,WeatherCatV1.15B25,2013-05-28 04:06:00,
2013-05-27 21:11:00,54.2,53.1,29.81,ESE,104,4.0,4.0,96,0.00,,,0.34,WeatherCatV1.15B25,2013-05-28 04:11:00,
2013-05-27 21:16:00,54.2,53.1,29.81,SE,136,1.0,3.0,96,0.00,,,0.34,WeatherCatV1.15B25,2013-05-28 04:16:00,
2013-05-27 21:21:00,54.2,53.1,29.82,South,176,1.0,2.0,96,0.00,,,0.34,WeatherCatV1.15B25,2013-05-28 04:21:00,
2013-05-27 21:26:00,54.1,53.0,29.82,SSE,157,2.0,5.0,96,0.00,,,0.34,WeatherCatV1.15B25,2013-05-28 04:26:00,
2013-05-27 21:31:00,54.1,53.0,29.82,ENE,64,2.0,4.0,96,0.00,,,0.34,WeatherCatV1.15B25,2013-05-28 04:31:00,
2013-05-27 21:36:00,54.0,52.9,29.82,ESE,109,1.0,3.0,96,0.00,,,0.34,WeatherCatV1.15B25,2013-05-28 04:36:00,
2013-05-27 21:41:00,54.0,52.9,29.82,East,101,0.0,3.0,96,0.00,,,0.34,WeatherCatV1.15B25,2013-05-28 04:41:00,
2013-05-27 21:46:00,53.9,52.8,29.82,SE,126,2.0,5.0,96,0.00,,,0.34,WeatherCatV1.15B25,2013-05-28 04:46:00,
2013-05-27 21:51:00,53.9,52.8,29.82,SE,134,0.0,2.0,96,0.00,,,0.34,WeatherCatV1.15B25,2013-05-28 04:51:00,
2013-05-27 21:56:00,53.9,53.1,29.82,SSW,211,0.0,1.0,97,0.00,,,0.34,WeatherCatV1.15B25,2013-05-28 04:56:00,
2013-05-27 22:01:00,53.9,53.1,29.83,ESE,117,1.0,3.0,97,0.00,,,0.34,WeatherCatV1.15B25,2013-05-28 05:01:00,
2013-05-27 22:06:00,53.9,53.1,29.83,SE,131,0.0,1.0,97,0.00,,,0.34,WeatherCatV1.15B25,2013-05-28 05:06:00,
2013-05-27 22:11:00,53.9,53.1,29.83,SE,140,2.0,3.0,97,0.00,,,0.34,WeatherCatV1.15B25,2013-05-28 05:11:00,
2013-05-27 22:16:00,53.9,53.1,29.83,SSE,161,1.0,2.0,97,0.00,,,0.34,WeatherCatV1.15B25,2013-05-28 05:16:00,
2013-05-27 22:21:00,53.9,53.1,29.83,South,180,2.0,4.0,97,0.00,,,0.34,WeatherCatV1.15B25,2013-05-28 05:21:00,
2013-05-27 22:26:00,53.9,53.1,29.83,SE,136,0.0,2.0,97,0.00,,,0.34,WeatherCatV1.15B25,2013-05-28 05:26:00,
2013-05-27 22:31:00,53.9,52.8,29.83,SE,140,1.0,1.0,96,0.00,,,0.34,WeatherCatV1.15B25,2013-05-28 05:31:00,
2013-05-27 22:36:00,53.9,52.8,29.83,South,176,2.0,2.0,96,0.00,,,0.34,WeatherCatV1.15B25,2013-05-28 05:36:00,
2013-05-27 22:41:00,53.9,52.8,29.83,SE,140,2.0,3.0,96,0.00,,,0.34,WeatherCatV1.15B25,2013-05-28 05:41:00,
2013-05-27 22:46:00,53.8,52.7,29.83,SE,129,2.0,3.0,96,0.00,,,0.34,WeatherCatV1.15B25,2013-05-28 05:46:00,
2013-05-27 22:51:00,53.7,52.6,29.83,SW,233,3.0,4.0,96,0.00,,,0.34,WeatherCatV1.15B25,2013-05-28 05:51:00,
2013-05-27 22:56:00,53.7,52.6,29.83,SSE,159,5.0,5.0,96,0.00,,,0.34,WeatherCatV1.15B25,2013-05-28 05:56:00,
2013-05-27 23:01:00,53.7,52.6,29.83,SSW,193,1.0,3.0,96,0.00,,,0.34,WeatherCatV1.15B25,2013-05-28 06:01:00,
2013-05-27 23:06:00,53.7,52.6,29.83,SW,232,0.0,2.0,96,0.00,,,0.34,WeatherCatV1.15B25,2013-05-28 06:06:00,
2013-05-27 23:11:00,53.7,52.6,29.83,SSE,149,1.0,2.0,96,0.00,,,0.34,WeatherCatV1.15B25,2013-05-28 06:11:00,
2013-05-27 23:16:00,53.7,52.6,29.83,SSE,149,0.0,0.0,96,0.00,,,0.34,WeatherCatV1.15B25,2013-05-28 06:16:00,
2013-05-27 23:21:00,53.7,52.6,29.83,SE,141,0.0,1.0,96,0.00,,,0.34,WeatherCatV1.15B25,2013-05-28 06:21:00,
2013-05-27 23:26:00,53.7,52.6,29.84,SSW,198,0.0,2.0,96,0.00,,,0.34,WeatherCatV1.15B25,2013-05-28 06:26:00,
2013-05-27 23:31:00,53.6,52.5,29.84,South,177,2.0,5.0,96,0.00,,,0.34,WeatherCatV1.15B25,2013-05-28 06:31:00,
2013-05-27 23:36:00,53.5,52.4,29.84,ESE,105,1.0,8.0,96,0.00,,,0.34,WeatherCatV1.15B25,2013-05-28 06:36:00,
2013-05-27 23:41:00,53.4,52.3,29.84,SW,228,4.0,6.0,96,0.00,,,0.34,WeatherCatV1.15B25,2013-05-28 06:41:00,
2013-05-27 23:46:00,53.4,52.3,29.84,SSW,204,1.0,6.0,96,0.00,,,0.34,WeatherCatV1.15B25,2013-05-28 06:46:00,
2013-05-27 23:51:00,53.3,51.9,29.84,SSE,157,3.0,6.0,95,0.00,,,0.34,WeatherCatV1.15B25,2013-05-28 06:51:00,
2013-05-27 23:56:00,53.3,51.9,29.85,South,191,2.0,7.0,95,0.00,,,0.34,WeatherCatV1.15B25,2013-05-28 06:56:00,